PWSweather.com
Personal Weather Stations
Station Observations
IMAZOWIE6
WarszawaPL

WarszawaPL

Lat: 52.27957, Lon: 21.05489

Elevation: 100

Station Type: WS1080

http://stacjapogody.waw.pl/

High Low Average
Temperature 69.8°F21.0°C 55.9°F13.3°C 63.1°F17.3°C
Dew Point -165.8°F-109.9°C -167.2°F-110.7°C -166.5°F-110.3°C
Winds 2.0 mph 3.2 kmh Calm Calm Calm NCalm N
Wind Gusts 5.4 mph8.7 kmh -- 2.0 mph3.2 kmh
Humidity - - -
Pressure 29.65 in1004.1 mb 29.56 in1001.0 mb -
Precipitation 0.00 in0.0 mm - -
Hour Temp Dew Point Humidity Winds Wind Gusts Pressure Precip Precip Rate Daily Precip Total
12:02 AM 60.8°F16.0°C -166.7°F-110.4°C - Calm Calm 0.6 mph1.0 kmh 29.56 in1001.0 mb 0.00 in0.0 mm 0.00 in0.0 mm 0.00 in0.0 mm
12:17 AM 60.3°F15.7°C -166.8°F-110.4°C - Calm Calm 1.4 mph2.3 kmh 29.56 in1001.0 mb 0.00 in0.0 mm 0.00 in0.0 mm 0.00 in0.0 mm
12:32 AM 59.9°F15.5°C -166.8°F-110.4°C - Calm Calm 1.4 mph2.3 kmh 29.56 in1001.0 mb 0.00 in0.0 mm 0.00 in0.0 mm 0.00 in0.0 mm
12:47 AM 59.4°F15.2°C -166.9°F-110.5°C - Calm Calm -- 29.56 in1001.0 mb 0.00 in0.0 mm 0.00 in0.0 mm 0.00 in0.0 mm
01:02 AM 58.8°F14.9°C -166.9°F-110.5°C - Calm Calm -- 29.56 in1001.0 mb 0.00 in0.0 mm 0.00 in0.0 mm 0.00 in0.0 mm
01:17 AM 58.1°F14.5°C -167.0°F-110.6°C - Calm Calm -- 29.57 in1001.4 mb 0.00 in0.0 mm 0.00 in0.0 mm 0.00 in0.0 mm
01:32 AM 57.9°F14.4°C -167.0°F-110.6°C - Calm Calm -- 29.57 in1001.4 mb 0.00 in0.0 mm 0.00 in0.0 mm 0.00 in0.0 mm
01:47 AM 57.4°F14.1°C -167.1°F-110.6°C - Calm Calm 2.0 mph3.2 kmh 29.57 in1001.4 mb 0.00 in0.0 mm 0.00 in0.0 mm 0.00 in0.0 mm
02:02 AM 57.0°F13.9°C -167.1°F-110.6°C - Calm Calm 1.4 mph2.3 kmh 29.57 in1001.4 mb 0.00 in0.0 mm 0.00 in0.0 mm 0.00 in0.0 mm
02:17 AM 56.7°F13.7°C -167.1°F-110.6°C - Calm Calm 1.4 mph2.3 kmh 29.57 in1001.4 mb 0.00 in0.0 mm 0.00 in0.0 mm 0.00 in0.0 mm
02:33 AM 56.5°F13.6°C -167.2°F-110.7°C - Calm Calm 2.0 mph3.2 kmh 29.57 in1001.4 mb 0.00 in0.0 mm 0.00 in0.0 mm 0.00 in0.0 mm
02:47 AM 56.3°F13.5°C -167.2°F-110.7°C - 2.0 mph N3.2 kmh N 4.0 mph6.4 kmh 29.57 in1001.4 mb 0.00 in0.0 mm 0.00 in0.0 mm 0.00 in0.0 mm
03:02 AM 56.3°F13.5°C -167.2°F-110.7°C - 1.4 mph N2.3 kmh N 3.4 mph5.5 kmh 29.58 in1001.7 mb 0.00 in0.0 mm 0.00 in0.0 mm 0.00 in0.0 mm
03:17 AM 56.3°F13.5°C -167.2°F-110.7°C - 0.6 mph N1.0 kmh N 2.0 mph3.2 kmh 29.57 in1001.4 mb 0.00 in0.0 mm 0.00 in0.0 mm 0.00 in0.0 mm
03:32 AM 55.9°F13.3°C -167.2°F-110.7°C - Calm Calm 2.8 mph4.5 kmh 29.57 in1001.4 mb 0.00 in0.0 mm 0.00 in0.0 mm 0.00 in0.0 mm
03:47 AM 56.7°F13.7°C -167.1°F-110.6°C - Calm Calm 0.6 mph1.0 kmh 29.58 in1001.7 mb 0.00 in0.0 mm 0.00 in0.0 mm 0.00 in0.0 mm
04:02 AM 59.2°F15.1°C -166.9°F-110.5°C - 0.6 mph N1.0 kmh N 2.8 mph4.5 kmh 29.58 in1001.7 mb 0.00 in0.0 mm 0.00 in0.0 mm 0.00 in0.0 mm
04:17 AM 61.5°F16.4°C -166.6°F-110.3°C - 0.6 mph N1.0 kmh N 2.0 mph3.2 kmh 29.58 in1001.7 mb 0.00 in0.0 mm 0.00 in0.0 mm 0.00 in0.0 mm
04:32 AM 64.0°F17.8°C -166.4°F-110.2°C - 0.6 mph N1.0 kmh N 3.4 mph5.5 kmh 29.59 in1002.0 mb 0.00 in0.0 mm 0.00 in0.0 mm 0.00 in0.0 mm
04:47 AM 64.8°F18.2°C -166.3°F-110.2°C - Calm Calm 2.0 mph3.2 kmh 29.58 in1001.7 mb 0.00 in0.0 mm 0.00 in0.0 mm 0.00 in0.0 mm
05:02 AM 66.7°F19.3°C -166.1°F-110.1°C - 0.6 mph N1.0 kmh N 3.4 mph5.5 kmh 29.58 in1001.7 mb 0.00 in0.0 mm 0.00 in0.0 mm 0.00 in0.0 mm
05:17 AM 68.5°F20.3°C -165.9°F-109.9°C - 0.6 mph N1.0 kmh N 2.8 mph4.5 kmh 29.58 in1001.7 mb 0.00 in0.0 mm 0.00 in0.0 mm 0.00 in0.0 mm
05:32 AM 69.8°F21.0°C -165.8°F-109.9°C - 0.6 mph N1.0 kmh N 3.4 mph5.5 kmh 29.59 in1002.0 mb 0.00 in0.0 mm 0.00 in0.0 mm 0.00 in0.0 mm
05:47 AM 68.4°F20.2°C -166.0°F-110.0°C - 2.0 mph N3.2 kmh N 4.8 mph7.7 kmh 29.59 in1002.0 mb 0.00 in0.0 mm 0.00 in0.0 mm 0.00 in0.0 mm
06:02 AM 66.0°F18.9°C -166.2°F-110.1°C - Calm Calm 2.8 mph4.5 kmh 29.59 in1002.0 mb 0.00 in0.0 mm 0.00 in0.0 mm 0.00 in0.0 mm
06:17 AM 68.0°F20.0°C -166.0°F-110.0°C - 1.4 mph N2.3 kmh N 4.0 mph6.4 kmh 29.59 in1002.0 mb 0.00 in0.0 mm 0.00 in0.0 mm 0.00 in0.0 mm
06:32 AM 68.2°F20.1°C -166.0°F-110.0°C - 0.6 mph N1.0 kmh N 2.8 mph4.5 kmh 29.59 in1002.0 mb 0.00 in0.0 mm 0.00 in0.0 mm 0.00 in0.0 mm
06:47 AM 69.4°F20.8°C -165.9°F-109.9°C - Calm Calm 0.6 mph1.0 kmh 29.59 in1002.0 mb 0.00 in0.0 mm 0.00 in0.0 mm 0.00 in0.0 mm
07:02 AM 66.7°F19.3°C -166.1°F-110.1°C - Calm Calm 2.8 mph4.5 kmh 29.60 in1002.4 mb 0.00 in0.0 mm 0.00 in0.0 mm 0.00 in0.0 mm
07:17 AM 64.4°F18.0°C -166.4°F-110.2°C - 1.4 mph N2.3 kmh N 4.0 mph6.4 kmh 29.60 in1002.4 mb 0.00 in0.0 mm 0.00 in0.0 mm 0.00 in0.0 mm
07:32 AM 61.0°F16.1°C -166.7°F-110.4°C - Calm Calm 1.4 mph2.3 kmh 29.60 in1002.4 mb 0.00 in0.0 mm 0.00 in0.0 mm 0.00 in0.0 mm
07:47 AM 61.5°F16.4°C -166.6°F-110.3°C - 1.4 mph N2.3 kmh N 4.0 mph6.4 kmh 29.60 in1002.4 mb 0.00 in0.0 mm 0.00 in0.0 mm 0.00 in0.0 mm
08:02 AM 62.4°F16.9°C -166.6°F-110.3°C - Calm Calm 1.4 mph2.3 kmh 29.60 in1002.4 mb 0.00 in0.0 mm 0.00 in0.0 mm 0.00 in0.0 mm
08:17 AM 65.3°F18.5°C -166.3°F-110.2°C - Calm Calm 1.4 mph2.3 kmh 29.61 in1002.7 mb 0.00 in0.0 mm 0.00 in0.0 mm 0.00 in0.0 mm
08:32 AM 68.5°F20.3°C -165.9°F-109.9°C - 0.6 mph N1.0 kmh N 2.0 mph3.2 kmh 29.61 in1002.7 mb 0.00 in0.0 mm 0.00 in0.0 mm 0.00 in0.0 mm
08:47 AM 65.8°F18.8°C -166.2°F-110.1°C - Calm Calm 1.4 mph2.3 kmh 29.61 in1002.7 mb 0.00 in0.0 mm 0.00 in0.0 mm 0.00 in0.0 mm
09:02 AM 63.9°F17.7°C -166.4°F-110.2°C - Calm Calm 0.6 mph1.0 kmh 29.61 in1002.7 mb 0.00 in0.0 mm 0.00 in0.0 mm 0.00 in0.0 mm
09:17 AM 65.1°F18.4°C -166.3°F-110.2°C - 0.6 mph N1.0 kmh N 2.8 mph4.5 kmh 29.62 in1003.0 mb 0.00 in0.0 mm 0.00 in0.0 mm 0.00 in0.0 mm
09:32 AM 63.1°F17.3°C -166.5°F-110.3°C - Calm Calm 2.8 mph4.5 kmh 29.62 in1003.0 mb 0.00 in0.0 mm 0.00 in0.0 mm 0.00 in0.0 mm
09:47 AM 64.0°F17.8°C -166.4°F-110.2°C - Calm Calm 2.0 mph3.2 kmh 29.62 in1003.0 mb 0.00 in0.0 mm 0.00 in0.0 mm 0.00 in0.0 mm
10:02 AM 64.8°F18.2°C -166.3°F-110.2°C - Calm Calm 0.6 mph1.0 kmh 29.62 in1003.0 mb 0.00 in0.0 mm 0.00 in0.0 mm 0.00 in0.0 mm
10:17 AM 64.6°F18.1°C -166.3°F-110.2°C - Calm Calm 2.8 mph4.5 kmh 29.62 in1003.0 mb 0.00 in0.0 mm 0.00 in0.0 mm 0.00 in0.0 mm
10:32 AM 67.1°F19.5°C -166.1°F-110.1°C - Calm Calm 1.4 mph2.3 kmh 29.62 in1003.0 mb 0.00 in0.0 mm 0.00 in0.0 mm 0.00 in0.0 mm
10:47 AM 66.9°F19.4°C -166.1°F-110.1°C - Calm Calm 2.0 mph3.2 kmh 29.64 in1003.7 mb 0.00 in0.0 mm 0.00 in0.0 mm 0.00 in0.0 mm
11:02 AM 65.8°F18.8°C -166.2°F-110.1°C - Calm Calm 0.6 mph1.0 kmh 29.63 in1003.4 mb 0.00 in0.0 mm 0.00 in0.0 mm 0.00 in0.0 mm
11:17 AM 66.6°F19.2°C -166.1°F-110.1°C - 0.6 mph N1.0 kmh N 4.0 mph6.4 kmh 29.63 in1003.4 mb 0.00 in0.0 mm 0.00 in0.0 mm 0.00 in0.0 mm
11:32 AM 65.8°F18.8°C -166.2°F-110.1°C - 0.6 mph N1.0 kmh N 4.0 mph6.4 kmh 29.63 in1003.4 mb 0.00 in0.0 mm 0.00 in0.0 mm 0.00 in0.0 mm
11:47 AM 66.7°F19.3°C -166.1°F-110.1°C - 1.4 mph N2.3 kmh N 2.8 mph4.5 kmh 29.64 in1003.7 mb 0.00 in0.0 mm 0.00 in0.0 mm 0.00 in0.0 mm
12:02 PM 65.8°F18.8°C -166.2°F-110.1°C - 0.6 mph N1.0 kmh N 4.0 mph6.4 kmh 29.64 in1003.7 mb 0.00 in0.0 mm 0.00 in0.0 mm 0.00 in0.0 mm
12:17 PM 66.0°F18.9°C -166.2°F-110.1°C - Calm Calm 2.0 mph3.2 kmh 29.63 in1003.4 mb 0.00 in0.0 mm 0.00 in0.0 mm 0.00 in0.0 mm
12:32 PM 67.3°F19.6°C -166.1°F-110.1°C - Calm Calm 1.4 mph2.3 kmh 29.64 in1003.7 mb 0.00 in0.0 mm 0.00 in0.0 mm 0.00 in0.0 mm
12:47 PM 66.6°F19.2°C -166.1°F-110.1°C - 0.6 mph N1.0 kmh N 4.0 mph6.4 kmh 29.64 in1003.7 mb 0.00 in0.0 mm 0.00 in0.0 mm 0.00 in0.0 mm
01:02 PM 66.2°F19.0°C -166.2°F-110.1°C - Calm Calm 1.4 mph2.3 kmh 29.65 in1004.1 mb 0.00 in0.0 mm 0.00 in0.0 mm 0.00 in0.0 mm
01:17 PM 67.5°F19.7°C -166.1°F-110.1°C - Calm Calm 0.6 mph1.0 kmh 29.64 in1003.7 mb 0.00 in0.0 mm 0.00 in0.0 mm 0.00 in0.0 mm
01:32 PM 66.9°F19.4°C -166.1°F-110.1°C - 0.6 mph N1.0 kmh N 4.0 mph6.4 kmh 29.64 in1003.7 mb 0.00 in0.0 mm 0.00 in0.0 mm 0.00 in0.0 mm
01:47 PM 66.6°F19.2°C -166.1°F-110.1°C - Calm Calm 1.4 mph2.3 kmh 29.64 in1003.7 mb 0.00 in0.0 mm 0.00 in0.0 mm 0.00 in0.0 mm
02:02 PM 66.4°F19.1°C -166.2°F-110.1°C - 2.0 mph N3.2 kmh N 5.4 mph8.7 kmh 29.64 in1003.7 mb 0.00 in0.0 mm 0.00 in0.0 mm 0.00 in0.0 mm
02:17 PM 65.7°F18.7°C -166.2°F-110.1°C - 0.6 mph N1.0 kmh N 2.0 mph3.2 kmh 29.64 in1003.7 mb 0.00 in0.0 mm 0.00 in0.0 mm 0.00 in0.0 mm
02:32 PM 66.2°F19.0°C -166.2°F-110.1°C - Calm Calm 1.4 mph2.3 kmh 29.64 in1003.7 mb 0.00 in0.0 mm 0.00 in0.0 mm 0.00 in0.0 mm
02:47 PM 66.0°F18.9°C -166.2°F-110.1°C - 0.6 mph N1.0 kmh N 4.8 mph7.7 kmh 29.64 in1003.7 mb 0.00 in0.0 mm 0.00 in0.0 mm 0.00 in0.0 mm
03:02 PM 66.4°F19.1°C -166.2°F-110.1°C - Calm Calm 0.6 mph1.0 kmh 29.64 in1003.7 mb 0.00 in0.0 mm 0.00 in0.0 mm 0.00 in0.0 mm
03:17 PM 66.4°F19.1°C -166.2°F-110.1°C - Calm Calm 2.8 mph4.5 kmh 29.64 in1003.7 mb 0.00 in0.0 mm 0.00 in0.0 mm 0.00 in0.0 mm
03:32 PM 66.0°F18.9°C -166.2°F-110.1°C - 1.4 mph N2.3 kmh N 5.4 mph8.7 kmh 29.64 in1003.7 mb 0.00 in0.0 mm 0.00 in0.0 mm 0.00 in0.0 mm
03:47 PM 65.7°F18.7°C -166.2°F-110.1°C - Calm Calm -- 29.64 in1003.7 mb 0.00 in0.0 mm 0.00 in0.0 mm 0.00 in0.0 mm
04:02 PM 65.1°F18.4°C -166.3°F-110.2°C - Calm Calm 1.4 mph2.3 kmh 29.63 in1003.4 mb 0.00 in0.0 mm 0.00 in0.0 mm 0.00 in0.0 mm
04:17 PM 65.3°F18.5°C -166.3°F-110.2°C - 0.6 mph N1.0 kmh N 2.0 mph3.2 kmh 29.64 in1003.7 mb 0.00 in0.0 mm 0.00 in0.0 mm 0.00 in0.0 mm
04:32 PM 65.3°F18.5°C -166.3°F-110.2°C - Calm Calm 0.6 mph1.0 kmh 29.64 in1003.7 mb 0.00 in0.0 mm 0.00 in0.0 mm 0.00 in0.0 mm
04:47 PM 65.5°F18.6°C -166.3°F-110.2°C - 0.6 mph N1.0 kmh N 3.4 mph5.5 kmh 29.63 in1003.4 mb 0.00 in0.0 mm 0.00 in0.0 mm 0.00 in0.0 mm
05:02 PM 65.1°F18.4°C -166.3°F-110.2°C - Calm Calm -- 29.62 in1003.0 mb 0.00 in0.0 mm 0.00 in0.0 mm 0.00 in0.0 mm
05:17 PM 64.6°F18.1°C -166.3°F-110.2°C - Calm Calm 0.6 mph1.0 kmh 29.62 in1003.0 mb 0.00 in0.0 mm 0.00 in0.0 mm 0.00 in0.0 mm
05:32 PM 64.4°F18.0°C -166.4°F-110.2°C - Calm Calm 0.6 mph1.0 kmh 29.63 in1003.4 mb 0.00 in0.0 mm 0.00 in0.0 mm 0.00 in0.0 mm
05:47 PM 64.2°F17.9°C -166.4°F-110.2°C - Calm Calm 1.4 mph2.3 kmh 29.62 in1003.0 mb 0.00 in0.0 mm 0.00 in0.0 mm 0.00 in0.0 mm
06:02 PM 63.7°F17.6°C -166.4°F-110.2°C - Calm Calm 0.6 mph1.0 kmh 29.63 in1003.4 mb 0.00 in0.0 mm 0.00 in0.0 mm 0.00 in0.0 mm
06:17 PM 63.3°F17.4°C -166.5°F-110.3°C - Calm Calm 1.4 mph2.3 kmh 29.64 in1003.7 mb 0.00 in0.0 mm 0.00 in0.0 mm 0.00 in0.0 mm
06:32 PM 63.3°F17.4°C -166.5°F-110.3°C - Calm Calm 0.6 mph1.0 kmh 29.64 in1003.7 mb 0.00 in0.0 mm 0.00 in0.0 mm 0.00 in0.0 mm
06:47 PM 62.8°F17.1°C -166.5°F-110.3°C - Calm Calm 0.6 mph1.0 kmh 29.63 in1003.4 mb 0.00 in0.0 mm 0.00 in0.0 mm 0.00 in0.0 mm
07:02 PM 62.6°F17.0°C -166.5°F-110.3°C - Calm Calm 0.6 mph1.0 kmh 29.63 in1003.4 mb 0.00 in0.0 mm 0.00 in0.0 mm 0.00 in0.0 mm
07:17 PM 62.2°F16.8°C -166.6°F-110.3°C - Calm Calm 0.6 mph1.0 kmh 29.63 in1003.4 mb 0.00 in0.0 mm 0.00 in0.0 mm 0.00 in0.0 mm
07:32 PM 62.1°F16.7°C -166.6°F-110.3°C - Calm Calm 0.6 mph1.0 kmh 29.63 in1003.4 mb 0.00 in0.0 mm 0.00 in0.0 mm 0.00 in0.0 mm
07:47 PM 62.1°F16.7°C -166.6°F-110.3°C - 0.6 mph N1.0 kmh N 2.0 mph3.2 kmh 29.64 in1003.7 mb 0.00 in0.0 mm 0.00 in0.0 mm 0.00 in0.0 mm
08:02 PM 62.1°F16.7°C -166.6°F-110.3°C - Calm Calm 1.4 mph2.3 kmh 29.64 in1003.7 mb 0.00 in0.0 mm 0.00 in0.0 mm 0.00 in0.0 mm
08:17 PM 61.2°F16.2°C -166.7°F-110.4°C - Calm Calm 1.4 mph2.3 kmh 29.64 in1003.7 mb 0.00 in0.0 mm 0.00 in0.0 mm 0.00 in0.0 mm
08:32 PM 60.6°F15.9°C -166.7°F-110.4°C - Calm Calm 0.6 mph1.0 kmh 29.64 in1003.7 mb 0.00 in0.0 mm 0.00 in0.0 mm 0.00 in0.0 mm
08:47 PM 60.1°F15.6°C -166.8°F-110.4°C - 0.6 mph N1.0 kmh N 2.0 mph3.2 kmh 29.64 in1003.7 mb 0.00 in0.0 mm 0.00 in0.0 mm 0.00 in0.0 mm
09:02 PM 60.1°F15.6°C -166.8°F-110.4°C - Calm Calm -- 29.64 in1003.7 mb 0.00 in0.0 mm 0.00 in0.0 mm 0.00 in0.0 mm
09:17 PM 60.1°F15.6°C -166.8°F-110.4°C - 0.6 mph N1.0 kmh N 2.0 mph3.2 kmh 29.63 in1003.4 mb 0.00 in0.0 mm 0.00 in0.0 mm 0.00 in0.0 mm
09:32 PM 59.4°F15.2°C -166.9°F-110.5°C - 0.6 mph N1.0 kmh N 1.4 mph2.3 kmh 29.63 in1003.4 mb 0.00 in0.0 mm 0.00 in0.0 mm 0.00 in0.0 mm
09:47 PM 58.6°F14.8°C -166.9°F-110.5°C - Calm Calm 1.4 mph2.3 kmh 29.63 in1003.4 mb 0.00 in0.0 mm 0.00 in0.0 mm 0.00 in0.0 mm
10:02 PM 58.3°F14.6°C -167.0°F-110.6°C - Calm Calm 1.4 mph2.3 kmh 29.64 in1003.7 mb 0.00 in0.0 mm 0.00 in0.0 mm 0.00 in0.0 mm
10:17 PM 57.7°F14.3°C -167.0°F-110.6°C - 0.6 mph N1.0 kmh N 1.4 mph2.3 kmh 29.63 in1003.4 mb 0.00 in0.0 mm 0.00 in0.0 mm 0.00 in0.0 mm
10:32 PM 58.5°F14.7°C -167.0°F-110.6°C - 0.6 mph N1.0 kmh N 2.0 mph3.2 kmh 29.63 in1003.4 mb 0.00 in0.0 mm 0.00 in0.0 mm 0.00 in0.0 mm
10:47 PM 57.7°F14.3°C -167.0°F-110.6°C - 1.4 mph N2.3 kmh N 2.8 mph4.5 kmh 29.63 in1003.4 mb 0.00 in0.0 mm 0.00 in0.0 mm 0.00 in0.0 mm
11:02 PM 57.2°F14.0°C -167.1°F-110.6°C - 0.6 mph N1.0 kmh N 2.8 mph4.5 kmh 29.63 in1003.4 mb 0.00 in0.0 mm 0.00 in0.0 mm 0.00 in0.0 mm
11:17 PM 56.7°F13.7°C -167.1°F-110.6°C - 0.6 mph N1.0 kmh N 1.4 mph2.3 kmh 29.63 in1003.4 mb 0.00 in0.0 mm 0.00 in0.0 mm 0.00 in0.0 mm
11:32 PM 56.5°F13.6°C -167.2°F-110.7°C - Calm Calm 2.0 mph3.2 kmh 29.63 in1003.4 mb 0.00 in0.0 mm 0.00 in0.0 mm 0.00 in0.0 mm
11:47 PM 56.5°F13.6°C -167.2°F-110.7°C - 1.4 mph N2.3 kmh N 2.8 mph4.5 kmh 29.63 in1003.4 mb 0.00 in0.0 mm 0.00 in0.0 mm 0.00 in0.0 mm